Tiempo atmosférico en la estación meteorológica de Espiel, Córdoba (465 m.)



Fecha
DESCASC
Temp. máxima en grados centígrados (hora)
DESCASC
Temp. mínima en grados centígrados (hora)
DESCASC
Temp. media en grados centígrados
DESCASC
Racha de viento máxima en m/sg (hora)
DESCASC
Velocidad máxima media en intervalos de 10 minutos(hora)
DESCASC
Precipitaciones diarias en mm
DESCASC
Precipitaciones de 00:00 a 06:00 en mm
DESCASC
Precipitaciones de 06:00 a 12:00 en mm
DESCASC
Precipitaciones de 12:00 a 18:00 en mm
DESCASC
Precipitaciones de 18:00 a 24:00 en mm
DESCASC
13-10-2019 29.2 (16:50) 17.6 (07:10) 23.4 7.22 (14:10) 3.61 (14:10) 0 0 0 0 0
12-10-2019 31.2 (15:10) 16.4 (04:10) 23.8 6.39 (17:20) 3.33 (19:50) 0 0 0 0 0
11-10-2019 28.5 (15:00) 13.2 (07:20) 20.8 6.11 (13:00) 2.5 (15:00) 0 0 0 0 0
10-10-2019 31.1 (16:20) 12.7 (00:00) 21.9 7.22 (12:10) 3.06 (16:30) 0 0 0 0 0
09-10-2019 33.2 (17:10) 12.8 (00:00) 23 5.28 (18:10) 2.22 (17:30) 0 0 0 0 0
08-10-2019 33.1 (16:40) 11.6 (00:00) 22.3 5.28 (16:20) 2.78 (16:00) 0 0 0 0 0
07-10-2019 33.4 (17:00) 10 (00:00) 21.7 5.83 (16:40) 3.06 (15:50) 0 0 0 0 0
06-10-2019 31.8 (16:20) 8.7 (00:00) 20.2 6.11 (17:10) 3.33 (17:10) 0 0 0 0 0
05-10-2019 30.4 (15:50) 10.1 (00:00) 20.3 6.11 (18:50) 3.06 (18:50) 0 0 0 0 0
04-10-2019 30.9 (16:50) 8.9 (00:00) 19.9 5.28 (17:00) 2.5 (17:00) 0 0 0 0 0
03-10-2019 29.5 (18:10) 8.7 (00:00) 19.1 7.78 (13:40) 4.17 (13:30) 0 0 0 0 0
02-10-2019 28.2 (17:50) 10.4 (00:00) 19.3 8.33 (16:30) 4.72 (15:00) 0 0 0 0 0
01-10-2019 28.6 (15:20) 12.2 (00:00) 20.4 9.44 (17:50) 4.72 (14:00) 0 0 0 0 0
30-09-2019 33.5 (17:00) 10.4 (00:00) 21.9 5.83 (18:20) 2.78 (18:30) 0 0 0 0 0
29-09-2019 33.7 (16:50) 10.8 (00:00) 22.3 5.28 (15:00) 2.5 (15:20) 0 0 0 0 0
28-09-2019 33.9 (17:10) 10.6 (00:00) 22.3 5.28 (15:10) 2.5 (16:20) 0 0 0 0 0
27-09-2019 32.5 (17:00) 10.6 (00:00) 21.6 5.56 (18:30) 2.78 (19:10) 0 0 0 0 0
26-09-2019 32.1 (17:00) 9.7 (00:00) 20.9 4.44 (16:10) 2.22 (14:20) 0 0 0 0 0
25-09-2019 28.5 (17:30) 13.3 (00:00) 20.9 7.5 (18:00) 3.61 (16:00) 0 0 0 0 0
24-09-2019 31.5 (17:10) 10 (00:00) 20.8 6.94 (17:30) 3.61 (18:00) 0 0 0 0 0
23-09-2019 28.6 (18:00) 10 (00:00) 19.3 5.56 (15:30) 3.33 (14:20) 0 0 0 0 0
22-09-2019 24.5 (16:40) 14.8 (00:00) 19.7 7.22 (15:50) 3.61 (15:40) 1.6 0 1.4 0.2 0
21-09-2019 23.1 (14:40) 17.6 (00:00) 20.4 6.39 (14:50) 2.78 (15:00) 0 0 0 0 0
20-09-2019 25.9 (17:40) 15 (00:00) 20.4 6.39 (14:20) 2.78 (17:10) 0 0 0 0 0
19-09-2019 30.4 (15:50) 13.2 (00:00) 21.8 5.83 (13:50) 2.78 (15:30) 0 0 0 0 0
18-09-2019 30 (16:10) 15 (00:00) 22.5 6.67 (17:40) 2.5 (15:50) 0 0 0 0 0
17-09-2019 29 (13:30) 15.8 (00:00) 22.4 7.22 (14:20) 3.33 (14:40) 0 0 0 0 0
16-09-2019 30.1 (18:00) 15.9 (00:00) 23 4.72 (15:50) 2.22 (15:50) 0.2 0 0.2 0 0

Gráficas

Temp. máximas Temp. mínimas Temp. medias Precipitaciones Rachas de viento máximas Velocidades máximas media en intervalos de 10 minutos

Datos horarios

Fecha y hora oficial Temperatura (ºC) Velocidad del viento (km/h) Dirección del viento Racha (km/h) Dirección de racha Precipitación (mm) Presión (hPa) Tendencia (hPa) Humedad (%)
2019-10-15 23:00:00 9.1 0 Calma 4 Nordeste 0 -- -- 67
2019-10-15 22:00:00 10.6 0 Calma 6 Norte 0 -- -- 60
2019-10-15 21:00:00 12.6 4 Nordeste 8 Nordeste 0 -- -- 53
2019-10-15 20:00:00 15.8 4 Norte 15 Noroeste 0 -- -- 40
2019-10-15 19:00:00 18.5 6 Noroeste 18 Oeste 0 -- -- 36
2019-10-15 18:00:00 19.8 8 Oeste 22 Oeste 0 -- -- 36
2019-10-15 17:00:00 19.8 8 Oeste 29 Noroeste 0 -- -- 37
2019-10-15 16:00:00 19.3 6 Oeste 20 Noroeste 0 -- -- 40
2019-10-15 15:00:00 17.9 5 Noroeste 23 Noroeste 0 -- -- 41
2019-10-15 14:00:00 17.5 12 Noroeste 21 Noroeste 0 -- -- 42
2019-10-15 13:00:00 16 10 Noroeste 19 Noroeste 0 -- -- 49
2019-10-15 12:00:00 13.8 8 Oeste 14 Oeste 0 -- -- 65
2019-10-15 11:00:00 11.2 5 Oeste 11 Noroeste 0 -- -- 77
2019-10-15 10:00:00 9.1 4 Noroeste 6 Norte 0 -- -- 91
2019-10-15 09:00:00 5.9 0 Calma 5 Norte 0 -- -- 94
2019-10-15 08:00:00 6.6 4 Norte 6 Norte 0 -- -- 94
2019-10-15 07:00:00 6.5 0 Calma 5 Este 0 -- -- 92
2019-10-15 06:00:00 8.4 0 Calma 9 Noroeste 0.2 -- -- 90
2019-10-15 05:00:00 9.1 4 Noroeste 10 Noroeste 0 -- -- 90
2019-10-15 04:00:00 9.1 3 Noroeste 10 Noroeste 0 -- -- 93
2019-10-15 03:00:00 9.4 5 Noroeste 9 Noroeste 0 -- -- 94
2019-10-15 02:00:00 9.3 4 Norte 7 Norte 0 -- -- 93
2019-10-15 01:00:00 9.9 0 Calma 6 Norte 0 -- -- 90
2019-10-15 00:00:00 11.3 0 Calma 12 Noroeste 0 -- -- 89
2019-10-14 23:00:00 11.8 3 Noroeste 10 Noroeste 0 -- -- 89
2019-10-14 22:00:00 12.3 5 Noroeste 14 Noroeste 0.2 -- -- 89
2019-10-14 21:00:00 12.8 9 Noroeste 32 Norte 1.2 -- -- 87
2019-10-14 20:00:00 15.2 14 Noroeste 31 Noroeste 0 -- -- 80
2019-10-14 19:00:00 17.4 19 Noroeste 37 Oeste 0 -- -- 66
2019-10-14 18:00:00 20.5 13 Sudoeste 34 Sudoeste 0 -- -- 50
2019-10-14 17:00:00 21.9 13 Sudoeste 41 Sudoeste 0 -- -- 49
2019-10-14 16:00:00 20.7 9 Sur 32 Sudoeste 0 -- -- 60
2019-10-14 15:00:00 21.4 9 Sur 26 Sur 0 -- -- 59
2019-10-14 14:00:00 18.7 7 Sudoeste 21 Sudoeste 0 -- -- 72
2019-10-14 13:00:00 19.3 10 Sudoeste 24 Sur 0 -- -- 65
2019-10-14 12:00:00 18.9 9 Sudoeste 24 Sudoeste 0 -- -- 73
2019-10-14 11:00:00 17.2 10 Sudoeste 23 Sudoeste 0 -- -- 80
2019-10-14 10:00:00 17 8 Sur 24 Sudoeste 0.4 -- -- 85
2019-10-14 09:00:00 16.9 10 Sudoeste 37 Sudoeste 1.4 -- -- 85
2019-10-14 08:00:00 17.7 13 Sudoeste 30 Sudoeste 0 -- -- 78
2019-10-14 07:00:00 18.1 14 Sudoeste 39 Oeste 0 -- -- 79
2019-10-14 06:00:00 18.2 13 Sudoeste 32 Sur 0 -- -- 74
2019-10-14 05:00:00 18.8 11 Sudoeste 29 Sudoeste 0 -- -- 73
2019-10-14 04:00:00 19.9 8 Sudoeste 21 Sudoeste 0 -- -- 61
2019-10-14 03:00:00 21.6 7 Sur 24 Sur 0 -- -- 51
2019-10-14 02:00:00 22.9 6 Sur 25 Sur 0 -- -- 41
2019-10-14 01:00:00 21.5 7 Sur 19 Sur 0 -- -- 43
2019-10-14 00:00:00 18.2 5 Este 9 Sudeste 0 -- -- 65
2019-10-13 23:00:00 17.9 0 Calma 5 Este 0 -- -- 67
2019-10-13 22:00:00 19 3 Este 5 Este 0 -- -- 63
2019-10-13 21:00:00 20.8 3 Noroeste 5 Este 0 -- -- 55
2019-10-13 20:00:00 24 0 Calma 6 Sur 0 -- -- 48
2019-10-13 19:00:00 28.2 3 Sur 17 Sur 0 -- -- 40
2019-10-13 18:00:00 29.2 6 Sur 20 Sur 0 -- -- 37
2019-10-13 17:00:00 29 9 Sur 19 Sur 0 -- -- 36
2019-10-13 16:00:00 28.7 7 Sur 22 Sur 0 -- -- 35
2019-10-13 15:00:00 27.7 8 Sur 26 Sudoeste 0 -- -- 37
2019-10-13 14:00:00 26.4 8 Sur 20 Sur 0 -- -- 43
2019-10-13 13:00:00 24.5 9 Sur 19 Sur 0 -- -- 51
2019-10-13 12:00:00 22 4 Sudoeste 15 Sudoeste 0 -- -- 60
2019-10-13 11:00:00 19.8 5 Sudoeste 11 Sur 0 -- -- 68
2019-10-13 10:00:00 18.3 3 Sudoeste 12 Sudoeste 0 -- -- 74
2019-10-13 09:00:00 17.8 5 Sudoeste 14 Sudoeste 0 -- -- 76
2019-10-13 08:00:00 17.7 4 Oeste 18 Oeste 0 -- -- 78
2019-10-13 07:00:00 17.7 4 Sudoeste 12 Sudoeste 0 -- -- 80
2019-10-13 06:00:00 18.1 3 Sudoeste 16 Oeste 0 -- -- 80
2019-10-13 05:00:00 18.3 8 Sudoeste 21 Sudoeste 0 -- -- 81
2019-10-13 04:00:00 18.3 4 Sudoeste 17 Sur 0 -- -- 81
2019-10-13 03:00:00 18.9 8 Sur 18 Sudoeste 0 -- -- 80
2019-10-13 02:00:00 20 3 Sur 15 Sudeste 0 -- -- 74
2019-10-13 01:00:00 20.5 2 Este 18 Sudoeste 0 -- -- 72
2019-10-13 00:00:00 22 8 Sudoeste 19 Sudoeste 0 -- -- 67
2019-10-12 23:00:00 23.1 6 Sudoeste 15 Oeste 0 -- -- 61
2019-10-12 22:00:00 23.6 0 Calma 21 Sudoeste 0 -- -- 57
2019-10-12 21:00:00 25 3 Oeste 19 Sur 0 -- -- 50
2019-10-12 20:00:00 26.8 9 Sudoeste 21 Sudoeste 0 -- -- 41
2019-10-12 19:00:00 29.3 5 Sur 22 Sur 0 -- -- 34
2019-10-12 18:00:00 30.6 9 Sur 23 Sur 0 -- -- 33
2019-10-12 17:00:00 31 8 Sur 21 Sudoeste 0 -- -- 29
2019-10-12 16:00:00 31.2 9 Sur 19 Sur 0 -- -- 31
2019-10-12 15:00:00 30.8 8 Sur 16 Sudoeste 0 -- -- 33
2019-10-12 14:00:00 29.2 7 Sudoeste 15 Sur 0 -- -- 35
2019-10-12 13:00:00 26.8 3 Sudeste 14 Sudeste 0 -- -- 39
2019-10-12 12:00:00 23.8 3 Sudeste 13 Sudeste 0 -- -- 46
2019-10-12 11:00:00 21.7 5 Sur 11 Sur 0 -- -- 59
2019-10-12 10:00:00 18.9 0 Calma 4 Nordeste 0 -- -- 71
2019-10-12 09:00:00 17.3 3 Norte 6 Norte 0 -- -- 72
2019-10-12 08:00:00 16.7 3 Este 6 Noroeste 0 -- -- 71
2019-10-12 07:00:00 17 3 Este 6 Sudeste 0 -- -- 69
2019-10-12 06:00:00 17.7 3 Sudeste 6 Norte 0 -- -- 68
2019-10-12 05:00:00 17.3 0 Calma 6 Nordeste 0 -- -- 66
2019-10-12 04:00:00 16.5 0 Calma 4 Noroeste 0 -- -- 66
2019-10-12 03:00:00 17 0 Calma 5 Oeste 0 -- -- 63
2019-10-12 02:00:00 18.1 0 Calma 5 Este 0 -- -- 61
2019-10-12 01:00:00 18.5 2 Noroeste 7 Sudeste 0 -- -- 56
2019-10-12 00:00:00 18.6 4 Norte 6 Norte 0 -- -- 56
2019-10-11 23:00:00 19.4 2 Sudeste 5 Este 0 -- -- 50
2019-10-11 22:00:00 20.3 2 Noroeste 4 Noroeste 0 -- -- 47
2019-10-11 21:00:00 21.6 0 Calma 8 Sudeste 0 -- -- 44
2019-10-11 20:00:00 24.1 4 Este 6 Este 0 -- -- 39
2019-10-11 19:00:00 26.4 4 Sudoeste 11 Sur 0 -- -- 35
2019-10-11 18:00:00 27.3 4 Sudoeste 18 Sudoeste 0 -- -- 39
2019-10-11 17:00:00 27.4 6 Sudoeste 18 Sudoeste 0 -- -- 40
2019-10-11 16:00:00 27.1 6 Sur 17 Sur 0 -- -- 36
2019-10-11 15:00:00 28.5 9 Sur 20 Sur 0 -- -- 34
2019-10-11 14:00:00 27.1 6 Sur 18 Este 0 -- -- 41
2019-10-11 13:00:00 26.6 9 Sudeste 22 Sur 0 -- -- 46
2019-10-11 12:00:00 24.6 6 Sur 12 Sudoeste 0 -- -- 54
2019-10-11 11:00:00 21.2 0 Calma 4 Oeste 0 -- -- 67
2019-10-11 10:00:00 18.7 2 Sudeste 4 Sudeste 0 -- -- 75
2019-10-11 09:00:00 13.7 0 Calma 3 Norte 0 -- -- 91
2019-10-11 08:00:00 13.2 0 Calma 3 Nordeste 0 -- -- 89
2019-10-11 07:00:00 13.5 0 Calma 4 Este 0 -- -- 87
2019-10-11 06:00:00 14 0 Calma 3 Sudeste 0 -- -- 85
2019-10-11 05:00:00 14.6 2 Este 3 Este 0 -- -- 83
2019-10-11 04:00:00 15.1 0 Calma 2 Oeste 0 -- -- 80
2019-10-11 03:00:00 15.5 0 Calma 5 Este 0 -- -- 75
2019-10-11 02:00:00 16.2 3 Este 4 Este 0 -- -- 72
2019-10-11 01:00:00 16.8 2 Noroeste 4 Noroeste 0 -- -- 67
2019-10-11 00:00:00 17.7 3 Noroeste 5 Noroeste 0 -- -- 62
2019-10-10 23:00:00 18.8 2 Sudeste 5 Este 0 -- -- 58
2019-10-10 22:00:00 19.9 2 Nordeste 4 Este 0 -- -- 57
2019-10-10 21:00:00 22.2 0 Calma 8 Sur 0 -- -- 52
2019-10-10 20:00:00 26.5 2 Sudeste 10 Sur 0 -- -- 42
2019-10-10 19:00:00 29.8 5 Sur 14 Sur 0 -- -- 37
2019-10-10 18:00:00 30.8 8 Sur 19 Sur 0 -- -- 36
2019-10-10 17:00:00 30.9 10 Sudoeste 22 Sur 0 -- -- 36
2019-10-10 16:00:00 31 6 Sur 19 Sur 0 -- -- 36
2019-10-10 15:00:00 29.7 8 Sur 21 Sur 0 -- -- 38
2019-10-10 14:00:00 29.3 7 Sur 18 Sudoeste 0 -- -- 38
2019-10-10 13:00:00 27.7 7 Sur 26 Sur 0 -- -- 41
2019-10-10 12:00:00 26.1 7 Sur 18 Sur 0 -- -- 45
2019-10-10 11:00:00 22.3 2 Sur 6 Sur 0 -- -- 56
2019-10-10 10:00:00 18 3 Sur 4 Sur 0 -- -- 66
2019-10-10 09:00:00 13.1 2 Este 4 Este 0 -- -- 78
2019-10-10 08:00:00 12.8 3 Sudeste 4 Sudeste 0 -- -- 79
2019-10-10 07:00:00 13.4 0 Calma 3 Norte 0 -- -- 81
2019-10-10 06:00:00 14.3 0 Calma 3 Noroeste 0 -- -- 82
2019-10-10 05:00:00 14.9 0 Calma 3 Sudeste 0 -- -- 82
2019-10-10 04:00:00 15.3 2 Norte 3 Noroeste 0 -- -- 77
2019-10-10 03:00:00 16 0 Calma 3 Sudoeste 0 -- -- 74
2019-10-10 02:00:00 16.7 0 Calma 3 Noroeste 0 -- -- 72
2019-10-10 01:00:00 17.5 0 Calma 2 Nordeste 0 -- -- 69
2019-10-10 00:00:00 18.6 2 Este 4 Este 0 -- -- 62
2019-10-09 23:00:00 20.2 0 Calma 4 Noroeste 0 -- -- 59
2019-10-09 22:00:00 22 2 Noroeste 6 Norte 0 -- -- 50
2019-10-09 21:00:00 23.9 4 Norte 10 Noroeste 0 -- -- 46
2019-10-09 20:00:00 27.8 3 Este 14 Sudoeste 0 -- -- 38
2019-10-09 19:00:00 31.4 3 Sur 19 Sur 0 -- -- 33
2019-10-09 18:00:00 32.7 8 Sur 17 Sur 0 -- -- 30
2019-10-09 17:00:00 33.1 5 Sur 14 Sur 0 -- -- 30
2019-10-09 16:00:00 32.2 4 Sudeste 12 Sudoeste 0 -- -- 31
2019-10-09 15:00:00 31.4 5 Este 12 Sur 0 -- -- 31
2019-10-09 14:00:00 30.4 6 Sur 12 Sudoeste 0 -- -- 33
2019-10-09 13:00:00 27.9 5 Sur 9 Sur 0 -- -- 39
2019-10-09 12:00:00 24.8 4 Sudoeste 7 Sur 0 -- -- 49
2019-10-09 11:00:00 21.1 2 Sudoeste 5 Sur 0 -- -- 61
2019-10-09 10:00:00 18 2 Sudeste 9 Sudeste 0 -- -- 71
2019-10-09 09:00:00 13.2 3 Este 6 Este 0 -- -- 89
2019-10-09 08:00:00 13 0 Calma 3 Norte 0 -- -- 86
2019-10-09 07:00:00 13.3 0 Calma 4 Este 0 -- -- 85
2019-10-09 06:00:00 13.8 3 Sudeste 4 Este 0 -- -- 83
2019-10-09 05:00:00 14.5 2 Este 3 Nordeste 0 -- -- 79
2019-10-09 04:00:00 15 0 Calma 6 Este 0 -- -- 73
2019-10-09 03:00:00 16.1 2 Este 6 Nordeste 0 -- -- 70
2019-10-09 02:00:00 16.8 0 Calma 3 Noroeste 0 -- -- 69
2019-10-09 01:00:00 17.9 0 Calma 3 Este 0 -- -- 62
2019-10-09 00:00:00 19.6 0 Calma 6 Este 0 -- -- 54
2019-10-08 23:00:00 20.3 0 Calma 6 Este 0 -- -- 49
2019-10-08 22:00:00 22.8 0 Calma 9 Sudeste 0 -- -- 43
2019-10-08 21:00:00 24.1 2 Este 8 Sur 0 -- -- 41
2019-10-08 20:00:00 28.2 4 Sur 15 Sur 0 -- -- 35
2019-10-08 19:00:00 31.2 7 Sudoeste 18 Sur 0 -- -- 30
2019-10-08 18:00:00 32.6 9 Sur 18 Sudoeste 0 -- -- 30
2019-10-08 17:00:00 33 6 Sur 19 Sudoeste 0 -- -- 27
2019-10-08 16:00:00 32.4 10 Sudoeste 19 Sudeste 0 -- -- 27
2019-10-08 15:00:00 32.5 8 Sur 17 Sudoeste 0 -- -- 27
2019-10-08 14:00:00 31.6 8 Sudoeste 15 Sur 0 -- -- 28
2019-10-08 13:00:00 30.2 7 Sudoeste 15 Sur 0 -- -- 30
2019-10-08 12:00:00 26.4 3 Sudoeste 7 Sur 0 -- -- 38
2019-10-08 11:00:00 22 2 Sur 5 Sur 0 -- -- 51
2019-10-08 10:00:00 17.6 2 Sur 4 Sudoeste 0 -- -- 59
2019-10-08 09:00:00 12.1 0 Calma 3 Este 0 -- -- 80
2019-10-08 08:00:00 11.8 0 Calma 4 Este 0 -- -- 79
2019-10-08 07:00:00 12.3 2 Nordeste 4 Este 0 -- -- 76
2019-10-08 06:00:00 12.7 2 Este 4 Este 0 -- -- 74
2019-10-08 05:00:00 13.3 0 Calma 5 Norte 0 -- -- 71
2019-10-08 04:00:00 13.8 0 Calma 3 Este 0 -- -- 67
2019-10-08 03:00:00 14.5 0 Calma 3 Noroeste 0 -- -- 70
2019-10-08 02:00:00 15.2 2 Noroeste 4 Este 0 -- -- 61
2019-10-08 01:00:00 16.1 0 Calma 3 Noroeste 0 -- -- 62
2019-10-08 00:00:00 17.1 0 Calma 3 Sur 0 -- -- 54
2019-10-07 23:00:00 18.6 2 Norte 5 Sudeste 0 -- -- 47
2019-10-07 22:00:00 20.5 0 Calma 6 Noroeste 0 -- -- 41
2019-10-07 21:00:00 23.1 0 Calma 9 Norte 0 -- -- 35
2019-10-07 20:00:00 28.8 3 Norte 12 Norte 0 -- -- 27
2019-10-07 19:00:00 31.9 6 Norte 18 Norte 0 -- -- 23
2019-10-07 18:00:00 33 8 Norte 21 Norte 0 -- -- 23
2019-10-07 17:00:00 33.4 6 Noroeste 21 Noroeste 0 -- -- 21
2019-10-07 16:00:00 32.8 9 Sudoeste 17 Sudoeste 0 -- -- 22
2019-10-07 15:00:00 31.2 6 Oeste 15 Oeste 0 -- -- 23
2019-10-07 14:00:00 30.3 8 Sudoeste 15 Oeste 0 -- -- 24
2019-10-07 13:00:00 28.1 7 Sudoeste 10 Sudoeste 0 -- -- 28
2019-10-07 12:00:00 24.3 3 Oeste 6 Oeste 0 -- -- 35
2019-10-07 11:00:00 20.2 3 Sudoeste 7 Sur 0 -- -- 49
2019-10-07 10:00:00 16.2 2 Oeste 5 Oeste 0 -- -- 53
2019-10-07 09:00:00 10.6 0 Calma 3 Este 0 -- -- 71
2019-10-07 08:00:00 10.3 0 Calma 5 Noroeste 0 -- -- 73
2019-10-07 07:00:00 10.7 0 Calma 3 Este 0 -- -- 76
2019-10-07 06:00:00 11.1 0 Calma 3 Noroeste 0 -- -- 75
2019-10-07 05:00:00 11.6 0 Calma 6 Este 0 -- -- 72
2019-10-07 04:00:00 12.3 3 Este 4 Este 0 -- -- 69
2019-10-07 03:00:00 13.1 4 Este 5 Este 0 -- -- 67
2019-10-07 02:00:00 13.7 0 Calma 6 Este 0 -- -- 59
2019-10-07 01:00:00 14.3 0 Calma 2 Oeste 0 -- -- 58
2019-10-07 00:00:00 15.2 0 Calma 4 Norte 0 -- -- 51
2019-10-06 23:00:00 16.7 0 Calma 5 Este 0 -- -- 44
2019-10-06 22:00:00 19.5 2 Sur 8 Noroeste 0 -- -- 37
2019-10-06 21:00:00 24.7 4 Noroeste 15 Noroeste 0 -- -- 30
2019-10-06 20:00:00 27.6 5 Norte 16 Noroeste 0 -- -- 27
2019-10-06 19:00:00 30.2 8 Oeste 19 Sudoeste 0 -- -- 22
2019-10-06 18:00:00 31.3 11 Oeste 22 Oeste 0 -- -- 21
2019-10-06 17:00:00 31.3 11 Oeste 21 Oeste 0 -- -- 22
2019-10-06 16:00:00 31.6 9 Noroeste 19 Oeste 0 -- -- 19
2019-10-06 15:00:00 30.4 7 Sudoeste 14 Sudoeste 0 -- -- 24
2019-10-06 14:00:00 28.3 6 Oeste 14 Oeste 0 -- -- 30
2019-10-06 13:00:00 26.6 6 Sudoeste 11 Oeste 0 -- -- 35
2019-10-06 12:00:00 22.7 4 Sur 8 Sur 0 -- -- 47
2019-10-06 11:00:00 18.7 2 Sudoeste 6 Sudoeste 0 -- -- 55
2019-10-06 10:00:00 14.4 4 Oeste 8 Este 0 -- -- 65
2019-10-06 09:00:00 9.2 2 Este 4 Noroeste 0 -- -- 83
2019-10-06 08:00:00 9.2 3 Norte 9 Noroeste 0 -- -- 80
2019-10-06 07:00:00 9.6 3 Norte 6 Noroeste 0 -- -- 79
2019-10-06 06:00:00 10.7 5 Noroeste 9 Noroeste 0 -- -- 75
2019-10-06 05:00:00 10.6 2 Norte 8 Noroeste 0 -- -- 75
2019-10-06 04:00:00 11.3 2 Nordeste 5 Noroeste 0 -- -- 75
2019-10-06 03:00:00 12.3 3 Noroeste 5 Este 0 -- -- 70
2019-10-06 02:00:00 13.3 0 Calma 6 Noroeste 0 -- -- 67
2019-10-06 01:00:00 14.6 3 Norte 5 Norte 0 -- -- 70
2019-10-06 00:00:00 15.9 2 Norte 5 Norte 0 -- -- 70
2019-10-05 23:00:00 17.1 0 Calma 4 Noroeste 0 -- -- 64
2019-10-05 22:00:00 18.9 0 Calma 5 Norte 0 -- -- 57
2019-10-05 21:00:00 21 0 Calma 8 Sur 0 -- -- 52
2019-10-05 20:00:00 26 2 Sudeste 16 Oeste 0 -- -- 42
2019-10-05 19:00:00 29 8 Oeste 22 Oeste 0 -- -- 30
2019-10-05 18:00:00 29.2 6 Oeste 18 Sudoeste 0 -- -- 33
2019-10-05 17:00:00 29.9 5 Sudoeste 13 Sur 0 -- -- 33
2019-10-05 16:00:00 30.2 7 Oeste 14 Oeste 0 -- -- 32
2019-10-05 15:00:00 29.5 5 Sur 15 Sur 0 -- -- 33
2019-10-05 14:00:00 27.7 5 Oeste 13 Oeste 0 -- -- 35
2019-10-05 13:00:00 25.9 4 Norte 10 Sudoeste 0 -- -- 41
2019-10-05 12:00:00 22.9 3 Sur 6 Sudoeste 0 -- -- 53
2019-10-05 11:00:00 19.1 3 Sur 6 Sudoeste 0 -- -- 63
2019-10-05 10:00:00 15.6 0 Calma 3 Oeste 0 -- -- 73
2019-10-05 09:00:00 10.5 0 Calma 4 Este 0 -- -- 91
2019-10-05 08:00:00 10.2 0 Calma 3 Norte 0 -- -- 88
2019-10-05 07:00:00 10.5 0 Calma 2 Norte 0 -- -- 87
2019-10-05 06:00:00 11 2 Este 6 Noroeste 0 -- -- 85
2019-10-05 05:00:00 11.7 2 Nordeste 4 Noroeste 0 -- -- 84
2019-10-05 04:00:00 12.7 2 Este 4 Noroeste 0 -- -- 82
2019-10-05 03:00:00 13.3 0 Calma 3 Noroeste 0 -- -- 78
2019-10-05 02:00:00 14 0 Calma 3 Norte 0 -- -- 73
2019-10-05 01:00:00 15 0 Calma 2 Nordeste 0 -- -- 71
2019-10-05 00:00:00 16.1 0 Calma 5 Noroeste 0 -- -- 64
2019-10-04 23:00:00 17.7 2 Noroeste 6 Sudeste 0 -- -- 54
2019-10-04 22:00:00 18.9 3 Este 5 Sudeste 0 -- -- 49
2019-10-04 21:00:00 21.6 3 Sudeste 9 Sudeste 0 -- -- 41
2019-10-04 20:00:00 25.8 3 Este 17 Sudoeste 0 -- -- 35
2019-10-04 19:00:00 29.2 8 Sudoeste 17 Sudoeste 0 -- -- 31
2019-10-04 18:00:00 30.5 6 Sur 19 Sur 0 -- -- 27
2019-10-04 17:00:00 30.9 9 Sur 19 Sudoeste 0 -- -- 27
2019-10-04 16:00:00 30.8 8 Sur 17 Sur 0 -- -- 26
2019-10-04 15:00:00 30.2 5 Sudoeste 14 Sudeste 0 -- -- 26
2019-10-04 14:00:00 29 5 Sur 14 Sudoeste 0 -- -- 28
2019-10-04 13:00:00 26.9 5 Sur 15 Sur 0 -- -- 32
2019-10-04 12:00:00 23.6 2 Sudoeste 7 Sudoeste 0 -- -- 42
2019-10-04 11:00:00 18.9 0 Calma 6 Sudoeste 0 -- -- 56
2019-10-04 10:00:00 15.2 2 Sudeste 5 Sudeste 0 -- -- 65
2019-10-04 09:00:00 9.6 0 Calma 3 Este 0 -- -- 86
2019-10-04 08:00:00 9 0 Calma 3 Sudeste 0 -- -- 84
2019-10-04 07:00:00 9.3 0 Calma 4 Sudeste 0 -- -- 82
2019-10-04 06:00:00 9.7 0 Calma 5 Este 0 -- -- 80
2019-10-04 05:00:00 10.1 2 Este 5 Este 0 -- -- 76
2019-10-04 04:00:00 10.5 0 Calma 4 Sudeste 0 -- -- 76
2019-10-04 03:00:00 11.5 0 Calma 3 Este 0 -- -- 74
2019-10-04 02:00:00 12.2 0 Calma 4 Noroeste 0 -- -- 66
2019-10-04 01:00:00 13.1 0 Calma 5 Este 0 -- -- 61
2019-10-04 00:00:00 14.4 2 Sudeste 6 Este 0 -- -- 56
2019-10-03 23:00:00 15.8 0 Calma 4 Noroeste 0 -- -- 47
2019-10-03 22:00:00 17.6 0 Calma 4 Sudeste 0 -- -- 43
2019-10-03 21:00:00 22.4 2 Norte 14 Noroeste 0 -- -- 30
2019-10-03 20:00:00 26.4 5 Noroeste 18 Noroeste 0 -- -- 24
2019-10-03 19:00:00 28.1 10 Noroeste 21 Oeste 0 -- -- 22
2019-10-03 18:00:00 29.4 12 Oeste 25 Oeste 0 -- -- 20
2019-10-03 17:00:00 29.2 14 Oeste 28 Oeste 0 -- -- 22
2019-10-03 16:00:00 28.4 10 Oeste 25 Oeste 0 -- -- 23
2019-10-03 15:00:00 27.8 10 Oeste 28 Oeste 0 -- -- 24
2019-10-03 14:00:00 26.2 13 Oeste 28 Noroeste 0 -- -- 26
2019-10-03 13:00:00 25 13 Noroeste 24 Oeste 0 -- -- 31
2019-10-03 12:00:00 21.6 4 Sur 9 Sur 0 -- -- 45
2019-10-03 11:00:00 17.9 2 Sudoeste 6 Sudoeste 0 -- -- 51
2019-10-03 10:00:00 14.6 0 Calma 3 Norte 0 -- -- 60
2019-10-03 09:00:00 9.2 0 Calma 3 Este 0 -- -- 85
2019-10-03 08:00:00 8.8 0 Calma 3 Este 0 -- -- 83
2019-10-03 07:00:00 9.5 0 Calma 4 Norte 0 -- -- 79
2019-10-03 06:00:00 10 2 Noroeste 3 Noroeste 0 -- -- 74
2019-10-03 05:00:00 10.4 0 Calma 2 Este 0 -- -- 77
2019-10-03 04:00:00 10.8 0 Calma 3 Sudeste 0 -- -- 72
2019-10-03 03:00:00 11.5 3 Este 3 Este 0 -- -- 69
2019-10-03 02:00:00 12.2 0 Calma 3 Oeste 0 -- -- 64
2019-10-03 01:00:00 12.8 3 Norte 5 Noroeste 0 -- -- 56
2019-10-03 00:00:00 14.1 4 Norte 6 Norte 0 -- -- 55
2019-10-02 23:00:00 15.9 3 Norte 5 Norte 0 -- -- 53
2019-10-02 22:00:00 18.2 3 Norte 9 Noroeste 0 -- -- 38
2019-10-02 21:00:00 22.8 2 Norte 18 Norte 0 -- -- 29
2019-10-02 20:00:00 25.3 5 Norte 26 Noroeste 0 -- -- 24
2019-10-02 19:00:00 27.4 13 Noroeste 26 Noroeste 0 -- -- 21
2019-10-02 18:00:00 28 13 Oeste 30 Oeste 0 -- -- 21
2019-10-02 17:00:00 27.9 13 Oeste 30 Oeste 0 -- -- 25
2019-10-02 16:00:00 26.9 13 Oeste 27 Noroeste 0 -- -- 28
2019-10-02 15:00:00 26.4 17 Oeste 29 Noroeste 0 -- -- 26
2019-10-02 14:00:00 25.8 10 Noroeste 23 Noroeste 0 -- -- 29
2019-10-02 13:00:00 23.8 7 Noroeste 18 Noroeste 0 -- -- 36
2019-10-02 12:00:00 21.7 4 Oeste 9 Noroeste 0 -- -- 45
2019-10-02 11:00:00 18.3 5 Oeste 9 Oeste 0 -- -- 63
2019-10-02 10:00:00 15.5 2 Oeste 5 Oeste 0 -- -- 74
2019-10-02 09:00:00 10.8 0 Calma 6 Norte 0 -- -- 91
2019-10-02 08:00:00 11 4 Norte 6 Norte 0 -- -- 88
2019-10-02 07:00:00 12.9 3 Noroeste 8 Oeste 0 -- -- 81
2019-10-02 06:00:00 13.6 3 Noroeste 13 Noroeste 0 -- -- 79
2019-10-02 05:00:00 15.5 6 Noroeste 14 Oeste 0 -- -- 73
2019-10-02 04:00:00 16.5 3 Noroeste 18 Oeste 0 -- -- 66
2019-10-02 03:00:00 17.6 6 Noroeste 20 Noroeste 0 -- -- 62
2019-10-02 02:00:00 18.5 8 Noroeste 17 Noroeste 0 -- -- 57
2019-10-02 01:00:00 19.7 7 Noroeste 18 Oeste 0 -- -- 54
2019-10-02 00:00:00 20.6 7 Noroeste 18 Noroeste 0 -- -- 53
2019-10-01 23:00:00 20.5 7 Noroeste 12 Noroeste 0 -- -- 52
2019-10-01 22:00:00 20.4 3 Norte 14 Oeste 0 -- -- 50
2019-10-01 21:00:00 22.7 5 Noroeste 15 Oeste 0 -- -- 43
2019-10-01 20:00:00 24.7 9 Noroeste 22 Noroeste 0 -- -- 39
2019-10-01 19:00:00 26.3 13 Oeste 32 Oeste 0 -- -- 36
2019-10-01 18:00:00 27.9 16 Noroeste 34 Oeste 0 -- -- 33
2019-10-01 17:00:00 28.5 15 Oeste 30 Oeste 0 -- -- 32
2019-10-01 16:00:00 27.9 14 Oeste 29 Oeste 0 -- -- 27
2019-10-01 15:00:00 28.2 15 Oeste 30 Oeste 0 -- -- 29
2019-10-01 14:00:00 27.3 17 Noroeste 31 Noroeste 0 -- -- 29
2019-10-01 13:00:00 26.7 15 Noroeste 27 Noroeste 0 -- -- 33
2019-10-01 12:00:00 24.9 10 Oeste 18 Oeste 0 -- -- 44
2019-10-01 11:00:00 21.5 4 Sur 8 Sur 0 -- -- 57
2019-10-01 10:00:00 18.2 0 Calma 3 Sudoeste 0 -- -- 61
2019-10-01 09:00:00 12.4 3 Este 4 Este 0 -- -- 84
2019-10-01 08:00:00 12.9 3 Noroeste 5 Este 0 -- -- 80
2019-10-01 07:00:00 13.8 0 Calma 5 Noroeste 0 -- -- 83
2019-10-01 06:00:00 13.6 0 Calma 5 Este 0 -- -- 81
2019-10-01 05:00:00 13.6 3 Este 5 Este 0 -- -- 82
2019-10-01 04:00:00 13.8 0 Calma 4 Oeste 0 -- -- 79
2019-10-01 03:00:00 14.3 0 Calma 3 Este 0 -- -- 76
2019-10-01 02:00:00 15.4 0 Calma 5 Nordeste 0 -- -- 71
2019-10-01 01:00:00 16.9 2 Oeste 6 Noroeste 0 -- -- 65
2019-10-01 00:00:00 17.8 4 Este 6 Este 0 -- -- 58
2019-09-30 23:00:00 19.6 0 Calma 6 Noroeste 0 -- -- 49
2019-09-30 22:00:00 22.3 4 Sudeste 8 Sudeste 0 -- -- 43
2019-09-30 21:00:00 23.8 3 Sudeste 9 Sur 0 -- -- 39
2019-09-30 20:00:00 28 3 Sudeste 17 Sur 0 -- -- 32
2019-09-30 19:00:00 30.5 9 Sur 21 Sudoeste 0 -- -- 30
2019-09-30 18:00:00 32.5 9 Sur 20 Sudeste 0 -- -- 28
2019-09-30 17:00:00 33.5 8 Sur 16 Sur 0 -- -- 26
2019-09-30 16:00:00 33.2 9 Sudoeste 17 Sudoeste 0 -- -- 21
2019-09-30 15:00:00 32.2 5 Oeste 13 Sudoeste 0 -- -- 19
2019-09-30 14:00:00 30.9 6 Sur 13 Sur 0 -- -- 25
2019-09-30 13:00:00 29.1 5 Sur 9 Sur 0 -- -- 25
2019-09-30 12:00:00 25.3 4 Sudoeste 8 Sudoeste 0 -- -- 39
2019-09-30 11:00:00 20.4 3 Sudoeste 5 Sur 0 -- -- 56
2019-09-30 10:00:00 16.5 0 Calma 2 Sur 0 -- -- 65
2019-09-30 09:00:00 11.2 0 Calma 2 Este 0 -- -- 87
2019-09-30 08:00:00 10.6 0 Calma 2 Norte 0 -- -- 84
2019-09-30 07:00:00 11.2 0 Calma -- -- 0 -- -- 84
2019-09-30 06:00:00 11.9 0 Calma 3 Sudeste 0 -- -- 82
2019-09-30 05:00:00 12.4 2 Este 3 Norte 0 -- -- 79
2019-09-30 04:00:00 13.2 0 Calma 3 Norte 0 -- -- 77
2019-09-30 03:00:00 14.1 0 Calma 4 Este 0 -- -- 71
2019-09-30 02:00:00 15.2 0 Calma 3 Este 0 -- -- 68
2019-09-30 01:00:00 16.7 0 Calma 3 Nordeste 0 -- -- 63
2019-09-30 00:00:00 18.1 3 Noroeste 5 Este 0 -- -- 52
2019-09-29 23:00:00 20.1 2 Nordeste 13 Oeste 0 -- -- 46
2019-09-29 22:00:00 21.7 4 Norte 7 Sudeste 0 -- -- 41
2019-09-29 21:00:00 25.8 4 Sudeste 10 Sudeste 0 -- -- 33
2019-09-29 20:00:00 29 5 Sur 17 Sur 0 -- -- 29
2019-09-29 19:00:00 31.9 6 Sur 17 Sudoeste 0 -- -- 26
2019-09-29 18:00:00 33 9 Sur 19 Sur 0 -- -- 24
2019-09-29 17:00:00 33.7 6 Sudoeste 19 Sur 0 -- -- 24
2019-09-29 16:00:00 33.4 8 Sur 18 Sudeste 0 -- -- 24
2019-09-29 15:00:00 33.2 9 Sur 19 Sur 0 -- -- 25
2019-09-29 14:00:00 31.6 6 Sur 17 Este 0 -- -- 27
2019-09-29 13:00:00 29.9 6 Sur 12 Sudoeste 0 -- -- 29
2019-09-29 12:00:00 25.7 3 Sur 7 Sur 0 -- -- 36
2019-09-29 11:00:00 21.1 2 Sur 5 Sur 0 -- -- 54
2019-09-29 10:00:00 17.1 0 Calma 3 Sudeste 0 -- -- 64
2019-09-29 09:00:00 11.7 2 Este 4 Este 0 -- -- 85
2019-09-29 08:00:00 11 0 Calma 3 Este 0 -- -- 86
2019-09-29 07:00:00 11.3 0 Calma 3 Este 0 -- -- 84
2019-09-29 06:00:00 11.6 0 Calma 3 Este 0 -- -- 81
2019-09-29 05:00:00 12.2 0 Calma 3 Norte 0 -- -- 78
2019-09-29 04:00:00 12.9 0 Calma 4 Este 0 -- -- 77
2019-09-29 03:00:00 13.1 0 Calma 2 Noroeste 0 -- -- 73
2019-09-29 02:00:00 13.7 0 Calma 5 Este 0 -- -- 68
2019-09-29 01:00:00 14.7 0 Calma 3 Sudeste 0 -- -- 64
2019-09-29 00:00:00 16.2 0 Calma 2 Oeste 0 -- -- 61
2019-09-28 23:00:00 18 0 Calma 6 Oeste 0 -- -- 51
2019-09-28 22:00:00 20 3 Noroeste 6 Nordeste 0 -- -- 40
2019-09-28 21:00:00 22.5 3 Este 11 Sudoeste 0 -- -- 33
2019-09-28 20:00:00 29.4 3 Sur 16 Sudoeste 0 -- -- 25
2019-09-28 19:00:00 32.5 5 Sur 15 Sudoeste 0 -- -- 20
2019-09-28 18:00:00 33.6 5 Sur 18 Sur 0 -- -- 20
2019-09-28 17:00:00 33.6 7 Sudoeste 18 Sur 0 -- -- 19
2019-09-28 16:00:00 32.8 6 Sur 19 Este 0 -- -- 23
2019-09-28 15:00:00 31.7 6 Sudeste 15 Este 0 -- -- 25
2019-09-28 14:00:00 31.1 7 Sudoeste 14 Sudoeste 0 -- -- 27
2019-09-28 13:00:00 28.7 6 Sudoeste 10 Sur 0 -- -- 31
2019-09-28 12:00:00 25.1 3 Sur 7 Sur 0 -- -- 41
2019-09-28 11:00:00 20.9 3 Sur 5 Sudoeste 0 -- -- 54
2019-09-28 10:00:00 17.3 0 Calma 4 Este 0 -- -- 60
2019-09-28 09:00:00 11.5 0 Calma 2 Este 0 -- -- 85
2019-09-28 08:00:00 10.7 0 Calma 3 Norte 0 -- -- 81
2019-09-28 07:00:00 11.3 0 Calma 3 Noroeste 0 -- -- 80
2019-09-28 06:00:00 11.8 0 Calma 2 Norte 0 -- -- 78
2019-09-28 05:00:00 12.4 0 Calma 2 Este 0 -- -- 76
2019-09-28 04:00:00 13.1 0 Calma 4 Sudeste 0 -- -- 73
2019-09-28 03:00:00 13.8 0 Calma 4 Este 0 -- -- 71
2019-09-28 02:00:00 14.6 2 Este 3 Este 0 -- -- 70
2019-09-28 01:00:00 15.7 0 Calma 3 Este 0 -- -- 66
2019-09-28 00:00:00 17.1 2 Este 3 Oeste 0 -- -- 62
2019-09-27 23:00:00 18.6 0 Calma 3 Noroeste 0 -- -- 56
2019-09-27 22:00:00 20.8 0 Calma 4 Norte 0 -- -- 46
2019-09-27 21:00:00 25.1 2 Sudoeste 14 Sur 0 -- -- 37
2019-09-27 20:00:00 28.9 4 Sudoeste 17 Noroeste 0 -- -- 33
2019-09-27 19:00:00 31.6 9 Noroeste 20 Oeste 0 -- -- 23
2019-09-27 18:00:00 32.4 5 Sur 18 Sur 0 -- -- 26
2019-09-27 17:00:00 32.5 6 Sur 14 Sur 0 -- -- 24
2019-09-27 16:00:00 31.5 5 Sudeste 15 Sudoeste 0 -- -- 25
2019-09-27 15:00:00 30.8 4 Noroeste 16 Sur 0 -- -- 27
2019-09-27 14:00:00 29.9 4 Sudeste 15 Sudeste 0 -- -- 29
2019-09-27 13:00:00 28.5 5 Sudoeste 11 Sudeste 0 -- -- 33
2019-09-27 12:00:00 25.5 3 Sudeste 6 Sur 0 -- -- 39
2019-09-27 11:00:00 21 2 Sur 4 Sudoeste 0 -- -- 55
2019-09-27 10:00:00 17.1 0 Calma 4 Sudeste 0 -- -- 64
2019-09-27 09:00:00 11.6 0 Calma 3 Noroeste 0 -- -- 89
2019-09-27 08:00:00 10.7 0 Calma 2 Este 0 -- -- 85
2019-09-27 07:00:00 11.1 0 Calma 3 Este 0 -- -- 81
2019-09-27 06:00:00 11.5 0 Calma 2 Este 0 -- -- 78
2019-09-27 05:00:00 12.2 2 Norte 3 Norte 0 -- -- 77
2019-09-27 04:00:00 12.8 0 Calma 4 Norte 0 -- -- 74
2019-09-27 03:00:00 13.6 0 Calma 4 Norte 0 -- -- 71
2019-09-27 02:00:00 14.6 2 Este 3 Sudeste 0 -- -- 70
2019-09-27 01:00:00 15.7 0 Calma 3 Noroeste 0 -- -- 67
2019-09-27 00:00:00 16.7 0 Calma 4 Noroeste 0 -- -- 61
2019-09-26 23:00:00 18.3 3 Oeste 5 Oeste 0 -- -- 51
2019-09-26 22:00:00 20.2 0 Calma 4 Norte 0 -- -- 45
2019-09-26 21:00:00 23.8 3 Este 8 Sudoeste 0 -- -- 38
2019-09-26 20:00:00 28.3 5 Sudoeste 14 Sur 0 -- -- 31
2019-09-26 19:00:00 30.8 4 Sur 14 Sur 0 -- -- 27
2019-09-26 18:00:00 31.9 6 Sudoeste 16 Oeste 0 -- -- 23
2019-09-26 17:00:00 32.1 4 Sudoeste 16 Sudoeste 0 -- -- 23
2019-09-26 16:00:00 30.9 5 Oeste 14 Oeste 0 -- -- 26
2019-09-26 15:00:00 30.1 6 Sur 14 Oeste 0 -- -- 28
2019-09-26 14:00:00 29 4 Oeste 13 Sur 0 -- -- 30
2019-09-26 13:00:00 27.3 3 Oeste 9 Noroeste 0 -- -- 34
2019-09-26 12:00:00 24.1 4 Sur 6 Sur 0 -- -- 44
2019-09-26 11:00:00 19.7 3 Sudoeste 5 Sur 0 -- -- 55
2019-09-26 10:00:00 16.4 0 Calma 2 Sudeste 0 -- -- 62
2019-09-26 09:00:00 11 0 Calma 3 Noroeste 0 -- -- 85
2019-09-26 08:00:00 9.8 0 Calma 2 Este 0 -- -- 83
2019-09-26 07:00:00 10.3 0 Calma 5 Norte 0 -- -- 81
2019-09-26 06:00:00 10.8 0 Calma 2 Noroeste 0 -- -- 80
2019-09-26 05:00:00 11.3 2 Este 4 Este 0 -- -- 78
2019-09-26 04:00:00 12 0 Calma 4 Norte 0 -- -- 75
2019-09-26 03:00:00 12.7 2 Norte 4 Norte 0 -- -- 74
2019-09-26 02:00:00 13.3 0 Calma 3 Este 0 -- -- 71
2019-09-26 01:00:00 14.8 0 Calma 7 Este 0 -- -- 66
2019-09-26 00:00:00 15.9 0 Calma 6 Norte 0 -- -- 62
2019-09-25 23:00:00 16.6 0 Calma 3 Nordeste 0 -- -- 58
2019-09-25 22:00:00 19.1 3 Noroeste 12 Norte 0 -- -- 48
2019-09-25 21:00:00 23.1 6 Norte 14 Noroeste 0 -- -- 38
2019-09-25 20:00:00 25.7 9 Noroeste 21 Oeste 0 -- -- 33
2019-09-25 19:00:00 27.9 11 Oeste 23 Oeste 0 -- -- 30
2019-09-25 18:00:00 28.5 11 Oeste 27 Oeste 0 -- -- 29
2019-09-25 17:00:00 28.2 12 Oeste 23 Noroeste 0 -- -- 30
2019-09-25 16:00:00 27.9 13 Oeste 22 Oeste 0 -- -- 29
2019-09-25 15:00:00 27.2 12 Oeste 22 Oeste 0 -- -- 33
2019-09-25 14:00:00 26.1 8 Oeste 18 Oeste 0 -- -- 34
2019-09-25 13:00:00 23.8 8 Sudoeste 17 Sudoeste 0 -- -- 44
2019-09-25 12:00:00 21.7 8 Oeste 13 Oeste 0 -- -- 56
2019-09-25 11:00:00 19.2 6 Oeste 15 Oeste 0 -- -- 66
2019-09-25 10:00:00 17.2 4 Oeste 12 Noroeste 0 -- -- 76
2019-09-25 09:00:00 14.1 2 Noroeste 5 Norte 0 -- -- 90
2019-09-25 08:00:00 13.6 0 Calma 6 Norte 0 -- -- 87
2019-09-25 07:00:00 15.5 0 Calma 10 Noroeste 0 -- -- 83
2019-09-25 06:00:00 17.5 5 Noroeste 9 Noroeste 0 -- -- 81
2019-09-25 05:00:00 18.7 4 Noroeste 12 Noroeste 0 -- -- 79
2019-09-25 04:00:00 19 2 Norte 16 Noroeste 0 -- -- 78
2019-09-25 03:00:00 20.5 8 Noroeste 18 Noroeste 0 -- -- 77
2019-09-25 02:00:00 20 3 Noroeste 9 Norte 0 -- -- 75
2019-09-25 01:00:00 20.5 3 Norte 7 Norte 0 -- -- 72
2019-09-25 00:00:00 20.5 3 Noroeste 9 Norte 0 -- -- 69
2019-09-24 23:00:00 20.2 2 Norte 8 Noroeste 0 -- -- 64
2019-09-24 22:00:00 22.6 3 Norte 12 Noroeste 0 -- -- 49
2019-09-24 21:00:00 24.9 5 Norte 16 Noroeste 0 -- -- 34
2019-09-24 20:00:00 28.6 9 Noroeste 21 Noroeste 0 -- -- 28
2019-09-24 19:00:00 30.5 10 Noroeste 23 Noroeste 0 -- -- 25
2019-09-24 18:00:00 31.2 13 Noroeste 25 Noroeste 0 -- -- 25
2019-09-24 17:00:00 31.3 10 Noroeste 23 Noroeste 0 -- -- 26
2019-09-24 16:00:00 30.9 7 Oeste 20 Oeste 0 -- -- 28
2019-09-24 15:00:00 30.7 8 Sudoeste 18 Sudoeste 0 -- -- 28
2019-09-24 14:00:00 29.5 5 Sur 14 Sur 0 -- -- 30
2019-09-24 13:00:00 27.1 5 Sur 10 Sudoeste 0 -- -- 36
2019-09-24 12:00:00 23.4 4 Oeste 9 Oeste 0 -- -- 41
2019-09-24 11:00:00 20.2 4 Oeste 9 Oeste 0 -- -- 50
2019-09-24 10:00:00 15.7 3 Oeste 6 Oeste 0 -- -- 67
2019-09-24 09:00:00 11.2 0 Calma 5 Noroeste 0 -- -- 87
2019-09-24 08:00:00 10.1 0 Calma 4 Oeste 0 -- -- 86
2019-09-24 07:00:00 10.6 0 Calma 4 Oeste 0 -- -- 84
2019-09-24 06:00:00 10.9 3 Norte 4 Norte 0 -- -- 83
2019-09-24 05:00:00 11.4 0 Calma 5 Noroeste 0 -- -- 80
2019-09-24 04:00:00 11.9 0 Calma 3 Norte 0 -- -- 78
2019-09-24 03:00:00 12.6 0 Calma 3 Norte 0 -- -- 78
2019-09-24 02:00:00 13.3 0 Calma 3 Este 0 -- -- 75
2019-09-24 01:00:00 14.4 0 Calma 4 Este 0 -- -- 70
2019-09-24 00:00:00 15.5 0 Calma 4 Nordeste 0 -- -- 66
2019-09-23 23:00:00 16.8 0 Calma 3 Noroeste 0 -- -- 57
2019-09-23 22:00:00 18.3 3 Nordeste 5 Nordeste 0 -- -- 54
2019-09-23 21:00:00 21.6 5 Nordeste 12 Noroeste 0 -- -- 41
2019-09-23 20:00:00 26.4 7 Noroeste 12 Noroeste 0 -- -- 31
2019-09-23 19:00:00 27.7 4 Norte 14 Noroeste 0 -- -- 31
2019-09-23 18:00:00 28.6 6 Oeste 17 Oeste 0 -- -- 29
2019-09-23 17:00:00 27.7 8 Oeste 16 Oeste 0 -- -- 31
2019-09-23 16:00:00 27.1 10 Sudoeste 20 Oeste 0 -- -- 32
2019-09-23 15:00:00 25.8 8 Sudoeste 19 Sudoeste 0 -- -- 36
2019-09-23 14:00:00 24.5 8 Oeste 14 Oeste 0 -- -- 41
2019-09-23 13:00:00 22.7 7 Sudoeste 13 Sudoeste 0 -- -- 48
2019-09-23 12:00:00 20.8 4 Sudoeste 8 Sur 0 -- -- 55
2019-09-23 11:00:00 18 3 Sudoeste 6 Oeste 0 -- -- 65
2019-09-23 10:00:00 14.5 3 Oeste 6 Oeste 0 -- -- 80
2019-09-23 09:00:00 11.1 2 Noroeste 4 Norte 0 -- -- 95
2019-09-23 08:00:00 10.2 3 Norte 5 Noroeste 0 -- -- 93
2019-09-23 07:00:00 10.2 0 Calma 4 Noroeste 0 -- -- 92
2019-09-23 06:00:00 10.7 3 Noroeste 5 Noroeste 0 -- -- 91
2019-09-23 05:00:00 11 0 Calma 3 Norte 0 -- -- 90
2019-09-23 04:00:00 11.5 0 Calma 4 Este 0 -- -- 90
2019-09-23 03:00:00 12.1 0 Calma 3 Sudeste 0 -- -- 87
2019-09-23 02:00:00 13.2 2 Este 3 Este 0 -- -- 86
2019-09-23 01:00:00 13.9 0 Calma 2 Nordeste 0 -- -- 84
2019-09-23 00:00:00 14.8 0 Calma 4 Noroeste 0 -- -- 77
2019-09-22 23:00:00 15.8 0 Calma 4 Norte 0 -- -- 70
2019-09-22 22:00:00 18.6 4 Norte 10 Noroeste 0 -- -- 59
2019-09-22 21:00:00 20 4 Norte 14 Noroeste 0 -- -- 54
2019-09-22 20:00:00 22.2 8 Noroeste 19 Noroeste 0 -- -- 47
2019-09-22 19:00:00 23.7 8 Noroeste 20 Oeste 0 -- -- 43
2019-09-22 18:00:00 24.4 8 Noroeste 22 Noroeste 0 -- -- 43
2019-09-22 17:00:00 24.3 10 Oeste 22 Noroeste 0 -- -- 39
2019-09-22 16:00:00 24 12 Noroeste 26 Oeste 0.2 -- -- 44
2019-09-22 15:00:00 23.2 8 Oeste 21 Noroeste 0 -- -- 51
2019-09-22 14:00:00 21 4 Sudoeste 10 Sudoeste 0 -- -- 65
2019-09-22 13:00:00 17.7 5 Oeste 20 Oeste 0 -- -- 77
2019-09-22 12:00:00 16.7 6 Oeste 14 Oeste 0 -- -- 91
2019-09-22 11:00:00 15.9 8 Noroeste 19 Noroeste 1 -- -- 93
2019-09-22 10:00:00 18.1 2 Sur 10 Sur 0.2 -- -- 91
2019-09-22 09:00:00 18 6 Sur 15 Sur 0.2 -- -- 90
2019-09-22 08:00:00 18.6 6 Sur 16 Sur 0 -- -- 85
2019-09-22 07:00:00 18.7 6 Sur 14 Sur 0 -- -- 83
2019-09-22 06:00:00 18.8 4 Sur 14 Sudeste 0 -- -- 83
2019-09-22 05:00:00 18.9 3 Sur 18 Sur 0 -- -- 81
2019-09-22 04:00:00 19 8 Sudoeste 18 Sudoeste 0 -- -- 82
2019-09-22 03:00:00 19 8 Sudoeste 19 Sur 0 -- -- 85
2019-09-22 02:00:00 19.2 7 Sur 19 Sur 0 -- -- 85
2019-09-22 01:00:00 19.3 5 Sur 16 Sudoeste 0 -- -- 82
2019-09-22 00:00:00 19.6 4 Sudeste 14 Sur 0 -- -- 79
2019-09-21 23:00:00 19.9 4 Sudoeste 11 Sur 0 -- -- 76
2019-09-21 22:00:00 20 4 Sur 9 Sur 0 -- -- 73
2019-09-21 21:00:00 20.9 4 Sudoeste 12 Sur 0 -- -- 68
2019-09-21 20:00:00 21.8 5 Sur 21 Sur 0 -- -- 64
2019-09-21 19:00:00 22.4 6 Sudoeste 17 Sudoeste 0 -- -- 58
2019-09-21 18:00:00 21.9 5 Sudoeste 20 Sur 0 -- -- 59
2019-09-21 17:00:00 22.1 9 Sudoeste 22 Sudoeste 0 -- -- 55
2019-09-21 16:00:00 21.9 6 Sur 18 Sur 0 -- -- 54
2019-09-21 15:00:00 22.6 10 Sur 23 Sur 0 -- -- 61
2019-09-21 14:00:00 22.7 9 Sur 22 Sur 0 -- -- 63
2019-09-21 13:00:00 20.8 5 Sur 15 Sudoeste 0 -- -- 73
2019-09-21 12:00:00 20.1 6 Sudoeste 14 Sur 0 -- -- 76
2019-09-21 11:00:00 19.8 6 Sudoeste 13 Sur 0 -- -- 76
2019-09-21 10:00:00 19.5 5 Sur 12 Sur 0 -- -- 78
2019-09-21 09:00:00 18.5 0 Calma 6 Sudeste 0 -- -- 85
2019-09-21 08:00:00 17.8 3 Este 5 Sudeste 0 -- -- 86
2019-09-21 07:00:00 17.7 3 Este 4 Oeste 0 -- -- 87
2019-09-21 06:00:00 18.6 0 Calma 9 Noroeste 0 -- -- 84
2019-09-21 05:00:00 18.9 6 Noroeste 12 Oeste 0 -- -- 83
2019-09-21 04:00:00 18.7 0 Calma 4 Sur 0 -- -- 84
2019-09-21 03:00:00 18.3 0 Calma 5 Sudoeste 0 -- -- 85
2019-09-21 02:00:00 18.6 2 Sudoeste 7 Sudoeste 0 -- -- 82
2019-09-21 01:00:00 19 0 Calma 8 Oeste 0 -- -- 79
2019-09-21 00:00:00 19.6 0 Calma 6 Sudoeste 0 -- -- 74
2019-09-20 23:00:00 20.1 0 Calma 4 Sudoeste 0 -- -- 76
2019-09-20 22:00:00 21.9 0 Calma 7 Oeste 0 -- -- 65
2019-09-20 21:00:00 22.7 4 Sudoeste 14 Sudoeste 0 -- -- 61
2019-09-20 20:00:00 23.7 6 Sudoeste 20 Sur 0 -- -- 58
2019-09-20 19:00:00 24.6 8 Sudoeste 21 Sur 0 -- -- 58
2019-09-20 18:00:00 25.6 5 Sudoeste 20 Sudoeste 0 -- -- 56
2019-09-20 17:00:00 25.4 6 Sur 22 Sudoeste 0 -- -- 56
2019-09-20 16:00:00 25.8 8 Sur 21 Sur 0 -- -- 54
2019-09-20 15:00:00 24.9 9 Sur 23 Sudeste 0 -- -- 56
2019-09-20 14:00:00 24.9 8 Sur 16 Sudoeste 0 -- -- 55
2019-09-20 13:00:00 23.6 5 Sur 13 Sudeste 0 -- -- 62
2019-09-20 12:00:00 22.4 5 Sur 10 Sudoeste 0 -- -- 67
2019-09-20 11:00:00 20.3 0 Calma 5 Sudoeste 0 -- -- 69
2019-09-20 10:00:00 18 0 Calma 4 Sudoeste 0 -- -- 78
2019-09-20 09:00:00 16.2 2 Sudeste 4 Este 0 -- -- 83
2019-09-20 08:00:00 15.1 2 Norte 3 Noroeste 0 -- -- 85
2019-09-20 07:00:00 15 0 Calma 3 Este 0 -- -- 83
2019-09-20 06:00:00 15.1 0 Calma 2 Este 0 -- -- 79
2019-09-20 05:00:00 15.6 0 Calma 3 Noroeste 0 -- -- 75
2019-09-20 04:00:00 16.4 0 Calma 3 Norte 0 -- -- 72
2019-09-20 03:00:00 17.1 0 Calma 4 Nordeste 0 -- -- 76
2019-09-20 02:00:00 17.4 0 Calma 2 Sudoeste 0 -- -- 76
2019-09-20 01:00:00 17.8 0 Calma 3 Este 0 -- -- 72
2019-09-20 00:00:00 18.4 0 Calma 5 Oeste 0 -- -- 69
2019-09-19 23:00:00 19.2 0 Calma 3 Norte 0 -- -- 63
2019-09-19 22:00:00 20.2 2 Nordeste 5 Norte 0 -- -- 58
2019-09-19 21:00:00 22.8 5 Noroeste 12 Sur 0 -- -- 49
2019-09-19 20:00:00 26.4 3 Sur 17 Sudoeste 0 -- -- 40
2019-09-19 19:00:00 28.7 6 Sudoeste 18 Sur 0 -- -- 30
2019-09-19 18:00:00 30 8 Sudoeste 21 Sudoeste 0 -- -- 24
2019-09-19 17:00:00 30 8 Sur 19 Sudoeste 0 -- -- 29
2019-09-19 16:00:00 30.4 7 Sudoeste 20 Sur 0 -- -- 28
2019-09-19 15:00:00 29.7 8 Sudoeste 18 Sudeste 0 -- -- 34
2019-09-19 14:00:00 28.6 9 Sur 21 Sudoeste 0 -- -- 36
2019-09-19 13:00:00 27.2 5 Este 14 Sur 0 -- -- 41
2019-09-19 12:00:00 24.8 4 Sudoeste 8 Sur 0 -- -- 52
2019-09-19 11:00:00 20.9 3 Sudoeste 6 Sudoeste 0 -- -- 66
2019-09-19 10:00:00 17.9 0 Calma 4 Oeste 0 -- -- 79
2019-09-19 09:00:00 14.7 0 Calma 2 Noroeste 0 -- -- 95
2019-09-19 08:00:00 13.3 0 Calma 3 Noroeste 0 -- -- 92
2019-09-19 07:00:00 13.8 2 Este 4 Este 0 -- -- 92
2019-09-19 06:00:00 14.2 2 Este 3 Este 0 -- -- 91
2019-09-19 05:00:00 14.3 0 Calma 2 Nordeste 0 -- -- 90
2019-09-19 04:00:00 14.5 0 Calma 4 Noroeste 0 -- -- 87
2019-09-19 03:00:00 15.3 0 Calma 4 Este 0 -- -- 86
2019-09-19 02:00:00 16 3 Norte 4 Norte 0 -- -- 82
2019-09-19 01:00:00 16.5 0 Calma 5 Noroeste 0 -- -- 77
2019-09-19 00:00:00 17.6 0 Calma 5 Noroeste 0 -- -- 68
2019-09-18 23:00:00 19.8 0 Calma 7 Sudoeste 0 -- -- 60
2019-09-18 22:00:00 20.7 2 Norte 8 Este 0 -- -- 57
2019-09-18 21:00:00 24.5 3 Este 12 Sudoeste 0 -- -- 45
2019-09-18 20:00:00 26.8 4 Sur 17 Sudoeste 0 -- -- 43
2019-09-18 19:00:00 28.9 8 Sur 20 Sudeste 0 -- -- 40
2019-09-18 18:00:00 29.7 9 Sur 24 Sudoeste 0 -- -- 39
2019-09-18 17:00:00 29.8 8 Sur 17 Sur 0 -- -- 40
2019-09-18 16:00:00 29.8 9 Sur 18 Sur 0 -- -- 40
2019-09-18 15:00:00 29.1 7 Sur 17 Sur 0 -- -- 43
2019-09-18 14:00:00 27.6 5 Este 12 Este 0 -- -- 46
2019-09-18 13:00:00 26.6 5 Oeste 13 Sur 0 -- -- 49
2019-09-18 12:00:00 24.9 5 Sudoeste 10 Sudoeste 0 -- -- 52
2019-09-18 11:00:00 22.3 3 Sudoeste 6 Sudoeste 0 -- -- 73
2019-09-18 10:00:00 19 2 Sur 4 Sur 0 -- -- 87
2019-09-18 09:00:00 16.3 0 Calma 2 Nordeste 0 -- -- 96
2019-09-18 08:00:00 15 0 Calma 3 Norte 0 -- -- 94
2019-09-18 07:00:00 15.4 0 Calma 2 Este 0 -- -- 94
2019-09-18 06:00:00 15.5 0 Calma 3 Norte 0 -- -- 93
2019-09-18 05:00:00 15.9 0 Calma 3 Nordeste 0 -- -- 93
2019-09-18 04:00:00 16.2 0 Calma 3 Noroeste 0 -- -- 92
2019-09-18 03:00:00 16.6 0 Calma 3 Este 0 -- -- 91
2019-09-18 02:00:00 16.9 0 Calma 3 Norte 0 -- -- 88
2019-09-18 01:00:00 17.5 2 Noroeste 5 Noroeste 0 -- -- 85
2019-09-18 00:00:00 18.2 3 Norte 5 Noroeste 0 -- -- 82
2019-09-17 23:00:00 18.8 0 Calma 3 Sudoeste 0 -- -- 81
2019-09-17 22:00:00 20.1 0 Calma 7 Sur 0 -- -- 74
2019-09-17 21:00:00 22.4 3 Nordeste 10 Sur 0 -- -- 65